sensor_id;sensor_type;location;lat;lon;timestamp;P1;durP1;ratioP1;P2;durP2;ratioP2
23001;SDS011;11667;51.706;4.856;2023-04-15T00:01:57;14.95;;;8.03;;
23001;SDS011;11667;51.706;4.856;2023-04-15T00:04:27;16.82;;;7.90;;
23001;SDS011;11667;51.706;4.856;2023-04-15T00:06:58;16.27;;;8.28;;
23001;SDS011;11667;51.706;4.856;2023-04-15T00:09:29;15.80;;;8.03;;
23001;SDS011;11667;51.706;4.856;2023-04-15T00:11:59;16.27;;;8.53;;
23001;SDS011;11667;51.706;4.856;2023-04-15T00:14:28;12.63;;;8.15;;
23001;SDS011;11667;51.706;4.856;2023-04-15T00:16:58;16.77;;;8.23;;
23001;SDS011;11667;51.706;4.856;2023-04-15T00:19:27;13.93;;;8.15;;
23001;SDS011;11667;51.706;4.856;2023-04-15T00:21:58;14.50;;;7.90;;
23001;SDS011;11667;51.706;4.856;2023-04-15T00:24:28;17.32;;;7.95;;
23001;SDS011;11667;51.706;4.856;2023-04-15T00:26:58;14.90;;;8.28;;
23001;SDS011;11667;51.706;4.856;2023-04-15T00:29:27;14.50;;;8.10;;
23001;SDS011;11667;51.706;4.856;2023-04-15T00:31:57;14.73;;;7.92;;
23001;SDS011;11667;51.706;4.856;2023-04-15T00:34:26;14.33;;;8.45;;
23001;SDS011;11667;51.706;4.856;2023-04-15T00:36:56;14.83;;;8.23;;
23001;SDS011;11667;51.706;4.856;2023-04-15T00:39:26;14.80;;;8.30;;
23001;SDS011;11667;51.706;4.856;2023-04-15T00:41:56;16.80;;;8.83;;
23001;SDS011;11667;51.706;4.856;2023-04-15T00:44:26;16.87;;;8.83;;
23001;SDS011;11667;51.706;4.856;2023-04-15T00:46:55;14.78;;;8.68;;
23001;SDS011;11667;51.706;4.856;2023-04-15T00:49:25;15.78;;;8.48;;
23001;SDS011;11667;51.706;4.856;2023-04-15T00:51:55;18.82;;;9.00;;
23001;SDS011;11667;51.706;4.856;2023-04-15T00:54:24;14.30;;;8.65;;
23001;SDS011;11667;51.706;4.856;2023-04-15T00:56:54;17.67;;;8.90;;
23001;SDS011;11667;51.706;4.856;2023-04-15T00:59:24;16.65;;;8.93;;
23001;SDS011;11667;51.706;4.856;2023-04-15T01:01:54;16.35;;;9.08;;
23001;SDS011;11667;51.706;4.856;2023-04-15T01:04:24;16.57;;;8.90;;
23001;SDS011;11667;51.706;4.856;2023-04-15T01:06:54;16.23;;;9.05;;
23001;SDS011;11667;51.706;4.856;2023-04-15T01:09:24;14.90;;;9.23;;
23001;SDS011;11667;51.706;4.856;2023-04-15T01:11:53;16.65;;;9.70;;
23001;SDS011;11667;51.706;4.856;2023-04-15T01:14:24;15.85;;;8.85;;
23001;SDS011;11667;51.706;4.856;2023-04-15T01:16:53;18.48;;;9.93;;
23001;SDS011;11667;51.706;4.856;2023-04-15T01:19:23;16.90;;;9.25;;
23001;SDS011;11667;51.706;4.856;2023-04-15T01:21:52;17.25;;;9.30;;
23001;SDS011;11667;51.706;4.856;2023-04-15T01:24:22;16.65;;;9.15;;
23001;SDS011;11667;51.706;4.856;2023-04-15T01:26:54;15.90;;;9.58;;
23001;SDS011;11667;51.706;4.856;2023-04-15T01:29:23;14.03;;;9.45;;
23001;SDS011;11667;51.706;4.856;2023-04-15T01:31:54;16.57;;;9.55;;
23001;SDS011;11667;51.706;4.856;2023-04-15T01:34:26;17.00;;;9.78;;
23001;SDS011;11667;51.706;4.856;2023-04-15T01:36:55;18.48;;;9.33;;
23001;SDS011;11667;51.706;4.856;2023-04-15T01:39:25;16.40;;;10.28;;
23001;SDS011;11667;51.706;4.856;2023-04-15T01:41:55;21.85;;;10.78;;
23001;SDS011;11667;51.706;4.856;2023-04-15T01:44:25;16.50;;;10.05;;
23001;SDS011;11667;51.706;4.856;2023-04-15T01:46:54;18.17;;;11.57;;
23001;SDS011;11667;51.706;4.856;2023-04-15T01:49:25;20.80;;;11.88;;
23001;SDS011;11667;51.706;4.856;2023-04-15T01:51:55;19.40;;;12.25;;
23001;SDS011;11667;51.706;4.856;2023-04-15T01:54:25;22.82;;;11.68;;
23001;SDS011;11667;51.706;4.856;2023-04-15T01:56:54;20.27;;;11.45;;
23001;SDS011;11667;51.706;4.856;2023-04-15T01:59:24;17.87;;;11.43;;
23001;SDS011;11667;51.706;4.856;2023-04-15T02:01:53;19.77;;;11.28;;
23001;SDS011;11667;51.706;4.856;2023-04-15T02:04:26;24.65;;;11.12;;
23001;SDS011;11667;51.706;4.856;2023-04-15T02:06:57;16.95;;;11.00;;
23001;SDS011;11667;51.706;4.856;2023-04-15T02:09:27;21.80;;;10.98;;
23001;SDS011;11667;51.706;4.856;2023-04-15T02:11:57;19.75;;;11.12;;
23001;SDS011;11667;51.706;4.856;2023-04-15T02:14:28;24.90;;;11.88;;
23001;SDS011;11667;51.706;4.856;2023-04-15T02:16:58;20.35;;;11.03;;
23001;SDS011;11667;51.706;4.856;2023-04-15T02:19:29;22.45;;;11.85;;
23001;SDS011;11667;51.706;4.856;2023-04-15T02:21:58;23.60;;;11.38;;
23001;SDS011;11667;51.706;4.856;2023-04-15T02:24:29;19.35;;;11.05;;
23001;SDS011;11667;51.706;4.856;2023-04-15T02:26:58;17.27;;;11.12;;
23001;SDS011;11667;51.706;4.856;2023-04-15T02:29:30;19.02;;;11.48;;
23001;SDS011;11667;51.706;4.856;2023-04-15T02:32:00;22.87;;;12.03;;
23001;SDS011;11667;51.706;4.856;2023-04-15T02:34:29;20.70;;;11.68;;
23001;SDS011;11667;51.706;4.856;2023-04-15T02:37:00;23.05;;;11.83;;
23001;SDS011;11667;51.706;4.856;2023-04-15T02:39:31;22.37;;;11.75;;
23001;SDS011;11667;51.706;4.856;2023-04-15T02:42:01;23.18;;;11.75;;
23001;SDS011;11667;51.706;4.856;2023-04-15T02:44:32;20.77;;;11.15;;
23001;SDS011;11667;51.706;4.856;2023-04-15T02:47:03;17.00;;;10.88;;
23001;SDS011;11667;51.706;4.856;2023-04-15T02:49:33;19.37;;;11.48;;
23001;SDS011;11667;51.706;4.856;2023-04-15T02:52:04;17.67;;;11.33;;
23001;SDS011;11667;51.706;4.856;2023-04-15T02:54:34;20.00;;;10.95;;
23001;SDS011;11667;51.706;4.856;2023-04-15T02:57:04;21.95;;;11.50;;
23001;SDS011;11667;51.706;4.856;2023-04-15T02:59:33;18.10;;;11.43;;
23001;SDS011;11667;51.706;4.856;2023-04-15T03:02:03;20.55;;;11.43;;
23001;SDS011;11667;51.706;4.856;2023-04-15T03:04:34;19.17;;;10.85;;
23001;SDS011;11667;51.706;4.856;2023-04-15T03:07:04;19.05;;;11.03;;
23001;SDS011;11667;51.706;4.856;2023-04-15T03:09:33;21.85;;;11.25;;
23001;SDS011;11667;51.706;4.856;2023-04-15T03:12:03;17.48;;;11.20;;
23001;SDS011;11667;51.706;4.856;2023-04-15T03:14:33;19.73;;;11.70;;
23001;SDS011;11667;51.706;4.856;2023-04-15T03:17:03;19.20;;;11.93;;
23001;SDS011;11667;51.706;4.856;2023-04-15T03:19:32;23.30;;;12.33;;
23001;SDS011;11667;51.706;4.856;2023-04-15T03:22:02;18.62;;;11.80;;
23001;SDS011;11667;51.706;4.856;2023-04-15T03:24:31;19.52;;;11.75;;
23001;SDS011;11667;51.706;4.856;2023-04-15T03:27:01;22.77;;;11.95;;
23001;SDS011;11667;51.706;4.856;2023-04-15T03:32:02;20.30;;;11.25;;
23001;SDS011;11667;51.706;4.856;2023-04-15T03:34:33;19.92;;;12.18;;
23001;SDS011;11667;51.706;4.856;2023-04-15T03:37:04;21.57;;;12.18;;
23001;SDS011;11667;51.706;4.856;2023-04-15T03:39:33;21.45;;;11.70;;
23001;SDS011;11667;51.706;4.856;2023-04-15T03:42:03;20.05;;;11.43;;
23001;SDS011;11667;51.706;4.856;2023-04-15T03:44:33;18.20;;;11.83;;
23001;SDS011;11667;51.706;4.856;2023-04-15T03:47:02;20.12;;;11.70;;
23001;SDS011;11667;51.706;4.856;2023-04-15T03:49:32;20.82;;;12.13;;
23001;SDS011;11667;51.706;4.856;2023-04-15T03:52:01;18.67;;;11.28;;
23001;SDS011;11667;51.706;4.856;2023-04-15T03:54:31;19.10;;;10.95;;
23001;SDS011;11667;51.706;4.856;2023-04-15T03:57:00;17.95;;;11.53;;
23001;SDS011;11667;51.706;4.856;2023-04-15T03:59:30;22.27;;;11.70;;
23001;SDS011;11667;51.706;4.856;2023-04-15T04:01:59;20.23;;;11.78;;
23001;SDS011;11667;51.706;4.856;2023-04-15T04:04:28;21.55;;;11.40;;
23001;SDS011;11667;51.706;4.856;2023-04-15T04:06:58;20.35;;;11.83;;
23001;SDS011;11667;51.706;4.856;2023-04-15T04:09:28;18.85;;;11.57;;
23001;SDS011;11667;51.706;4.856;2023-04-15T04:11:57;21.73;;;11.35;;
23001;SDS011;11667;51.706;4.856;2023-04-15T04:14:27;19.87;;;11.75;;
23001;SDS011;11667;51.706;4.856;2023-04-15T04:16:57;18.62;;;11.43;;
23001;SDS011;11667;51.706;4.856;2023-04-15T04:19:27;19.07;;;11.12;;
23001;SDS011;11667;51.706;4.856;2023-04-15T04:21:56;22.80;;;11.80;;
23001;SDS011;11667;51.706;4.856;2023-04-15T04:24:26;20.57;;;12.03;;
23001;SDS011;11667;51.706;4.856;2023-04-15T04:26:55;19.15;;;11.50;;
23001;SDS011;11667;51.706;4.856;2023-04-15T04:29:24;23.73;;;12.07;;
23001;SDS011;11667;51.706;4.856;2023-04-15T04:31:54;21.90;;;11.70;;
23001;SDS011;11667;51.706;4.856;2023-04-15T04:34:23;21.37;;;11.68;;
23001;SDS011;11667;51.706;4.856;2023-04-15T04:36:53;18.95;;;11.45;;
23001;SDS011;11667;51.706;4.856;2023-04-15T04:39:22;19.45;;;11.25;;
23001;SDS011;11667;51.706;4.856;2023-04-15T04:41:52;17.67;;;11.40;;
23001;SDS011;11667;51.706;4.856;2023-04-15T04:44:21;18.65;;;11.43;;
23001;SDS011;11667;51.706;4.856;2023-04-15T04:46:50;23.22;;;12.45;;
23001;SDS011;11667;51.706;4.856;2023-04-15T04:49:20;18.82;;;11.73;;
23001;SDS011;11667;51.706;4.856;2023-04-15T04:51:49;20.43;;;12.20;;
23001;SDS011;11667;51.706;4.856;2023-04-15T04:54:19;21.30;;;11.40;;
23001;SDS011;11667;51.706;4.856;2023-04-15T04:56:48;19.80;;;12.40;;
23001;SDS011;11667;51.706;4.856;2023-04-15T04:59:18;21.62;;;12.25;;
23001;SDS011;11667;51.706;4.856;2023-04-15T05:01:47;20.82;;;11.63;;
23001;SDS011;11667;51.706;4.856;2023-04-15T05:04:18;21.07;;;11.25;;
23001;SDS011;11667;51.706;4.856;2023-04-15T05:06:47;20.48;;;11.73;;
23001;SDS011;11667;51.706;4.856;2023-04-15T05:09:17;19.25;;;12.18;;
23001;SDS011;11667;51.706;4.856;2023-04-15T05:11:46;21.10;;;12.53;;
23001;SDS011;11667;51.706;4.856;2023-04-15T05:14:16;27.10;;;12.78;;
23001;SDS011;11667;51.706;4.856;2023-04-15T05:16:47;21.30;;;12.30;;
23001;SDS011;11667;51.706;4.856;2023-04-15T05:19:16;20.88;;;11.93;;
23001;SDS011;11667;51.706;4.856;2023-04-15T05:21:45;21.87;;;12.30;;
23001;SDS011;11667;51.706;4.856;2023-04-15T05:24:15;20.60;;;11.88;;
23001;SDS011;11667;51.706;4.856;2023-04-15T05:26:44;24.57;;;12.75;;
23001;SDS011;11667;51.706;4.856;2023-04-15T05:29:14;21.10;;;12.35;;
23001;SDS011;11667;51.706;4.856;2023-04-15T05:31:43;20.68;;;12.35;;
23001;SDS011;11667;51.706;4.856;2023-04-15T05:34:13;20.40;;;12.07;;
23001;SDS011;11667;51.706;4.856;2023-04-15T05:36:45;20.32;;;11.50;;
23001;SDS011;11667;51.706;4.856;2023-04-15T05:39:15;19.55;;;10.68;;
23001;SDS011;11667;51.706;4.856;2023-04-15T05:41:45;17.25;;;10.53;;
23001;SDS011;11667;51.706;4.856;2023-04-15T05:44:14;17.87;;;9.60;;
23001;SDS011;11667;51.706;4.856;2023-04-15T05:46:43;13.60;;;8.93;;
23001;SDS011;11667;51.706;4.856;2023-04-15T05:49:13;12.90;;;8.50;;
23001;SDS011;11667;51.706;4.856;2023-04-15T05:51:42;12.78;;;7.45;;
23001;SDS011;11667;51.706;4.856;2023-04-15T05:54:12;13.10;;;7.33;;
23001;SDS011;11667;51.706;4.856;2023-04-15T05:56:41;12.55;;;7.45;;
23001;SDS011;11667;51.706;4.856;2023-04-15T05:59:10;11.50;;;7.20;;
23001;SDS011;11667;51.706;4.856;2023-04-15T06:01:40;14.45;;;8.20;;
23001;SDS011;11667;51.706;4.856;2023-04-15T06:04:09;10.25;;;6.75;;
23001;SDS011;11667;51.706;4.856;2023-04-15T06:06:39;11.12;;;7.00;;
23001;SDS011;11667;51.706;4.856;2023-04-15T06:09:09;11.85;;;6.80;;
23001;SDS011;11667;51.706;4.856;2023-04-15T06:11:38;10.00;;;7.10;;
23001;SDS011;11667;51.706;4.856;2023-04-15T06:14:08;12.05;;;7.22;;
23001;SDS011;11667;51.706;4.856;2023-04-15T06:16:37;11.83;;;7.20;;
23001;SDS011;11667;51.706;4.856;2023-04-15T06:19:07;11.15;;;7.35;;
23001;SDS011;11667;51.706;4.856;2023-04-15T06:21:37;11.93;;;7.40;;
23001;SDS011;11667;51.706;4.856;2023-04-15T06:24:06;10.53;;;7.28;;
23001;SDS011;11667;51.706;4.856;2023-04-15T06:26:35;13.35;;;7.83;;
23001;SDS011;11667;51.706;4.856;2023-04-15T06:29:05;11.10;;;7.67;;
23001;SDS011;11667;51.706;4.856;2023-04-15T06:31:35;11.48;;;7.50;;
23001;SDS011;11667;51.706;4.856;2023-04-15T06:34:04;12.07;;;8.03;;
23001;SDS011;11667;51.706;4.856;2023-04-15T06:36:34;12.00;;;8.25;;
23001;SDS011;11667;51.706;4.856;2023-04-15T06:39:03;10.93;;;7.80;;
23001;SDS011;11667;51.706;4.856;2023-04-15T06:41:33;12.58;;;8.10;;
23001;SDS011;11667;51.706;4.856;2023-04-15T06:44:02;11.30;;;8.00;;
23001;SDS011;11667;51.706;4.856;2023-04-15T06:46:32;12.55;;;8.50;;
23001;SDS011;11667;51.706;4.856;2023-04-15T06:49:01;15.72;;;8.48;;
23001;SDS011;11667;51.706;4.856;2023-04-15T06:51:33;15.23;;;8.75;;
23001;SDS011;11667;51.706;4.856;2023-04-15T06:54:05;13.53;;;8.73;;
23001;SDS011;11667;51.706;4.856;2023-04-15T06:56:34;14.47;;;8.68;;
23001;SDS011;11667;51.706;4.856;2023-04-15T06:59:04;11.55;;;8.08;;
23001;SDS011;11667;51.706;4.856;2023-04-15T07:01:35;13.55;;;7.97;;
23001;SDS011;11667;51.706;4.856;2023-04-15T07:04:05;13.40;;;8.38;;
23001;SDS011;11667;51.706;4.856;2023-04-15T07:06:34;11.75;;;7.80;;
23001;SDS011;11667;51.706;4.856;2023-04-15T07:09:04;11.33;;;8.10;;
23001;SDS011;11667;51.706;4.856;2023-04-15T07:11:33;13.55;;;8.00;;
23001;SDS011;11667;51.706;4.856;2023-04-15T07:14:03;11.20;;;7.72;;
23001;SDS011;11667;51.706;4.856;2023-04-15T07:16:33;12.53;;;8.28;;
23001;SDS011;11667;51.706;4.856;2023-04-15T07:19:02;11.53;;;7.80;;
23001;SDS011;11667;51.706;4.856;2023-04-15T07:21:32;14.43;;;8.73;;
23001;SDS011;11667;51.706;4.856;2023-04-15T07:24:02;11.97;;;8.20;;
23001;SDS011;11667;51.706;4.856;2023-04-15T07:26:31;12.55;;;8.08;;
23001;SDS011;11667;51.706;4.856;2023-04-15T07:29:01;14.35;;;8.88;;
23001;SDS011;11667;51.706;4.856;2023-04-15T07:31:31;13.22;;;8.63;;
23001;SDS011;11667;51.706;4.856;2023-04-15T07:34:00;12.53;;;8.13;;
23001;SDS011;11667;51.706;4.856;2023-04-15T07:36:30;12.98;;;8.35;;
23001;SDS011;11667;51.706;4.856;2023-04-15T07:38:59;16.35;;;8.73;;
23001;SDS011;11667;51.706;4.856;2023-04-15T07:41:31;14.03;;;7.97;;
23001;SDS011;11667;51.706;4.856;2023-04-15T07:44:01;12.63;;;7.87;;
23001;SDS011;11667;51.706;4.856;2023-04-15T07:46:30;13.60;;;7.87;;
23001;SDS011;11667;51.706;4.856;2023-04-15T07:49:00;10.55;;;7.80;;
23001;SDS011;11667;51.706;4.856;2023-04-15T07:51:30;12.07;;;7.58;;
23001;SDS011;11667;51.706;4.856;2023-04-15T07:54:00;13.88;;;8.00;;
23001;SDS011;11667;51.706;4.856;2023-04-15T07:56:29;13.98;;;8.00;;
23001;SDS011;11667;51.706;4.856;2023-04-15T07:58:59;10.95;;;7.50;;
23001;SDS011;11667;51.706;4.856;2023-04-15T08:01:30;12.03;;;8.28;;
23001;SDS011;11667;51.706;4.856;2023-04-15T08:04:00;12.50;;;7.85;;
23001;SDS011;11667;51.706;4.856;2023-04-15T08:06:30;13.48;;;8.90;;
23001;SDS011;11667;51.706;4.856;2023-04-15T08:08:59;10.72;;;7.87;;
23001;SDS011;11667;51.706;4.856;2023-04-15T08:11:29;14.68;;;8.73;;
23001;SDS011;11667;51.706;4.856;2023-04-15T08:13:59;11.65;;;7.83;;
23001;SDS011;11667;51.706;4.856;2023-04-15T08:16:28;14.28;;;8.73;;
23001;SDS011;11667;51.706;4.856;2023-04-15T08:18:58;12.30;;;8.13;;
23001;SDS011;11667;51.706;4.856;2023-04-15T08:21:28;12.98;;;8.05;;
23001;SDS011;11667;51.706;4.856;2023-04-15T08:23:58;12.45;;;7.80;;
23001;SDS011;11667;51.706;4.856;2023-04-15T08:26:28;12.07;;;7.50;;
23001;SDS011;11667;51.706;4.856;2023-04-15T08:28:57;10.98;;;7.47;;
23001;SDS011;11667;51.706;4.856;2023-04-15T08:31:28;12.78;;;7.72;;
23001;SDS011;11667;51.706;4.856;2023-04-15T08:33:57;12.37;;;8.10;;
23001;SDS011;11667;51.706;4.856;2023-04-15T08:36:27;12.25;;;7.87;;
23001;SDS011;11667;51.706;4.856;2023-04-15T08:38:56;11.88;;;7.85;;
23001;SDS011;11667;51.706;4.856;2023-04-15T08:41:28;14.67;;;8.20;;
23001;SDS011;11667;51.706;4.856;2023-04-15T08:44:05;14.15;;;7.80;;
23001;SDS011;11667;51.706;4.856;2023-04-15T08:49:03;13.50;;;7.62;;
23001;SDS011;11667;51.706;4.856;2023-04-15T08:51:33;12.82;;;8.55;;
23001;SDS011;11667;51.706;4.856;2023-04-15T08:54:03;14.03;;;8.63;;
23001;SDS011;11667;51.706;4.856;2023-04-15T08:56:33;13.35;;;8.45;;
23001;SDS011;11667;51.706;4.856;2023-04-15T08:59:03;16.02;;;8.45;;
23001;SDS011;11667;51.706;4.856;2023-04-15T09:01:33;12.90;;;7.83;;
23001;SDS011;11667;51.706;4.856;2023-04-15T09:04:03;14.40;;;8.18;;
23001;SDS011;11667;51.706;4.856;2023-04-15T09:06:34;15.32;;;9.03;;
23001;SDS011;11667;51.706;4.856;2023-04-15T09:09:05;13.15;;;8.00;;
23001;SDS011;11667;51.706;4.856;2023-04-15T09:11:35;15.65;;;8.88;;
23001;SDS011;11667;51.706;4.856;2023-04-15T09:14:04;13.48;;;8.33;;
23001;SDS011;11667;51.706;4.856;2023-04-15T09:19:31;13.65;;;7.90;;
23001;SDS011;11667;51.706;4.856;2023-04-15T09:22:01;14.03;;;7.90;;
23001;SDS011;11667;51.706;4.856;2023-04-15T09:24:40;13.20;;;7.53;;
23001;SDS011;11667;51.706;4.856;2023-04-15T09:27:06;14.05;;;7.42;;
23001;SDS011;11667;51.706;4.856;2023-04-15T09:29:35;12.68;;;7.00;;
23001;SDS011;11667;51.706;4.856;2023-04-15T09:32:08;8.65;;;6.33;;
23001;SDS011;11667;51.706;4.856;2023-04-15T09:34:38;10.78;;;6.75;;
23001;SDS011;11667;51.706;4.856;2023-04-15T09:37:07;12.55;;;6.40;;
23001;SDS011;11667;51.706;4.856;2023-04-15T09:39:44;8.60;;;5.35;;
23001;SDS011;11667;51.706;4.856;2023-04-15T09:42:19;7.60;;;5.10;;
23001;SDS011;11667;51.706;4.856;2023-04-15T09:44:51;8.33;;;4.80;;
23001;SDS011;11667;51.706;4.856;2023-04-15T09:47:28;7.95;;;5.08;;
23001;SDS011;11667;51.706;4.856;2023-04-15T09:49:58;8.90;;;5.00;;
23001;SDS011;11667;51.706;4.856;2023-04-15T09:52:29;5.75;;;4.30;;
23001;SDS011;11667;51.706;4.856;2023-04-15T09:54:59;6.20;;;4.05;;
23001;SDS011;11667;51.706;4.856;2023-04-15T09:57:35;5.28;;;3.52;;
23001;SDS011;11667;51.706;4.856;2023-04-15T10:00:08;5.12;;;3.52;;
23001;SDS011;11667;51.706;4.856;2023-04-15T10:02:43;6.03;;;4.17;;
23001;SDS011;11667;51.706;4.856;2023-04-15T10:05:10;6.00;;;3.72;;
23001;SDS011;11667;51.706;4.856;2023-04-15T10:07:41;5.75;;;4.08;;
23001;SDS011;11667;51.706;4.856;2023-04-15T10:10:11;6.28;;;3.92;;
23001;SDS011;11667;51.706;4.856;2023-04-15T10:12:40;5.95;;;3.33;;
23001;SDS011;11667;51.706;4.856;2023-04-15T10:15:13;6.70;;;3.45;;
23001;SDS011;11667;51.706;4.856;2023-04-15T10:17:43;5.37;;;3.50;;
23001;SDS011;11667;51.706;4.856;2023-04-15T10:20:13;5.45;;;3.15;;
23001;SDS011;11667;51.706;4.856;2023-04-15T10:22:43;5.25;;;3.60;;
23001;SDS011;11667;51.706;4.856;2023-04-15T10:25:14;5.10;;;3.75;;
23001;SDS011;11667;51.706;4.856;2023-04-15T10:27:43;3.85;;;2.70;;
23001;SDS011;11667;51.706;4.856;2023-04-15T10:30:15;3.10;;;2.25;;
23001;SDS011;11667;51.706;4.856;2023-04-15T10:32:44;3.37;;;2.60;;
23001;SDS011;11667;51.706;4.856;2023-04-15T10:35:14;3.80;;;2.60;;
23001;SDS011;11667;51.706;4.856;2023-04-15T10:37:44;4.80;;;2.87;;
23001;SDS011;11667;51.706;4.856;2023-04-15T10:40:23;5.28;;;3.00;;
23001;SDS011;11667;51.706;4.856;2023-04-15T10:42:59;4.80;;;3.00;;
23001;SDS011;11667;51.706;4.856;2023-04-15T10:45:33;7.15;;;3.42;;
23001;SDS011;11667;51.706;4.856;2023-04-15T10:48:06;4.97;;;3.00;;
23001;SDS011;11667;51.706;4.856;2023-04-15T10:50:36;3.95;;;3.10;;
23001;SDS011;11667;51.706;4.856;2023-04-15T10:53:06;5.05;;;3.17;;
23001;SDS011;11667;51.706;4.856;2023-04-15T10:55:37;4.65;;;3.30;;
23001;SDS011;11667;51.706;4.856;2023-04-15T10:58:07;5.90;;;3.40;;
23001;SDS011;11667;51.706;4.856;2023-04-15T11:00:38;4.42;;;2.62;;
23001;SDS011;11667;51.706;4.856;2023-04-15T11:03:08;5.05;;;2.33;;
23001;SDS011;11667;51.706;4.856;2023-04-15T11:08:16;3.42;;;1.75;;
23001;SDS011;11667;51.706;4.856;2023-04-15T11:13:21;2.98;;;1.85;;
23001;SDS011;11667;51.706;4.856;2023-04-15T11:15:56;4.55;;;2.60;;
23001;SDS011;11667;51.706;4.856;2023-04-15T11:18:29;4.90;;;2.52;;
23001;SDS011;11667;51.706;4.856;2023-04-15T11:21:00;4.45;;;2.50;;
23001;SDS011;11667;51.706;4.856;2023-04-15T11:23:35;6.10;;;3.00;;
23001;SDS011;11667;51.706;4.856;2023-04-15T11:26:08;7.03;;;3.50;;
23001;SDS011;11667;51.706;4.856;2023-04-15T11:28:40;7.00;;;3.45;;
23001;SDS011;11667;51.706;4.856;2023-04-15T11:31:12;5.78;;;3.58;;
23001;SDS011;11667;51.706;4.856;2023-04-15T11:33:53;7.05;;;4.20;;
23001;SDS011;11667;51.706;4.856;2023-04-15T11:36:26;8.03;;;3.42;;
23001;SDS011;11667;51.706;4.856;2023-04-15T11:38:57;3.33;;;2.60;;
23001;SDS011;11667;51.706;4.856;2023-04-15T11:41:27;3.30;;;2.47;;
23001;SDS011;11667;51.706;4.856;2023-04-15T11:43:56;3.02;;;1.90;;
23001;SDS011;11667;51.706;4.856;2023-04-15T11:46:29;4.40;;;2.25;;
23001;SDS011;11667;51.706;4.856;2023-04-15T11:48:59;2.45;;;1.90;;
23001;SDS011;11667;51.706;4.856;2023-04-15T11:51:31;2.58;;;2.00;;
23001;SDS011;11667;51.706;4.856;2023-04-15T11:54:00;3.00;;;2.10;;
23001;SDS011;11667;51.706;4.856;2023-04-15T11:56:31;3.70;;;2.10;;
23001;SDS011;11667;51.706;4.856;2023-04-15T11:59:00;2.85;;;2.20;;
23001;SDS011;11667;51.706;4.856;2023-04-15T12:01:34;3.80;;;2.35;;
23001;SDS011;11667;51.706;4.856;2023-04-15T12:06:47;4.20;;;2.50;;
23001;SDS011;11667;51.706;4.856;2023-04-15T12:09:16;5.08;;;3.60;;
23001;SDS011;11667;51.706;4.856;2023-04-15T12:11:47;6.42;;;3.47;;
23001;SDS011;11667;51.706;4.856;2023-04-15T12:14:23;6.90;;;3.60;;
23001;SDS011;11667;51.706;4.856;2023-04-15T12:16:53;7.95;;;3.90;;
23001;SDS011;11667;51.706;4.856;2023-04-15T12:19:26;4.70;;;3.90;;
23001;SDS011;11667;51.706;4.856;2023-04-15T12:22:07;5.25;;;4.00;;
23001;SDS011;11667;51.706;4.856;2023-04-15T12:24:37;5.37;;;4.03;;
23001;SDS011;11667;51.706;4.856;2023-04-15T12:27:07;6.47;;;3.92;;
23001;SDS011;11667;51.706;4.856;2023-04-15T12:29:39;4.40;;;3.25;;
23001;SDS011;11667;51.706;4.856;2023-04-15T12:32:10;6.78;;;3.77;;
23001;SDS011;11667;51.706;4.856;2023-04-15T12:37:12;4.83;;;2.98;;
23001;SDS011;11667;51.706;4.856;2023-04-15T12:39:43;5.15;;;3.40;;
23001;SDS011;11667;51.706;4.856;2023-04-15T12:42:15;5.20;;;3.10;;
23001;SDS011;11667;51.706;4.856;2023-04-15T12:44:45;262.32;;;44.33;;
23001;SDS011;11667;51.706;4.856;2023-04-15T12:47:14;6.65;;;2.65;;
23001;SDS011;11667;51.706;4.856;2023-04-15T12:49:44;5.22;;;3.10;;
23001;SDS011;11667;51.706;4.856;2023-04-15T12:52:13;4.40;;;2.72;;
23001;SDS011;11667;51.706;4.856;2023-04-15T12:54:43;4.80;;;2.70;;
23001;SDS011;11667;51.706;4.856;2023-04-15T12:57:12;4.05;;;2.70;;
23001;SDS011;11667;51.706;4.856;2023-04-15T12:59:42;4.30;;;2.35;;
23001;SDS011;11667;51.706;4.856;2023-04-15T13:02:11;4.83;;;3.47;;
23001;SDS011;11667;51.706;4.856;2023-04-15T13:04:41;3.80;;;2.42;;
23001;SDS011;11667;51.706;4.856;2023-04-15T13:07:11;4.28;;;2.60;;
23001;SDS011;11667;51.706;4.856;2023-04-15T13:09:42;3.33;;;2.30;;
23001;SDS011;11667;51.706;4.856;2023-04-15T13:12:11;3.85;;;2.55;;
23001;SDS011;11667;51.706;4.856;2023-04-15T13:14:42;4.35;;;2.90;;
23001;SDS011;11667;51.706;4.856;2023-04-15T13:17:12;4.62;;;2.60;;
23001;SDS011;11667;51.706;4.856;2023-04-15T13:19:41;4.83;;;2.92;;
23001;SDS011;11667;51.706;4.856;2023-04-15T13:22:10;3.50;;;2.60;;
23001;SDS011;11667;51.706;4.856;2023-04-15T13:24:42;6.03;;;2.60;;
23001;SDS011;11667;51.706;4.856;2023-04-15T13:27:11;4.08;;;2.50;;
23001;SDS011;11667;51.706;4.856;2023-04-15T13:29:40;4.17;;;2.60;;
23001;SDS011;11667;51.706;4.856;2023-04-15T13:32:10;3.62;;;2.50;;
23001;SDS011;11667;51.706;4.856;2023-04-15T13:34:39;3.92;;;2.80;;
23001;SDS011;11667;51.706;4.856;2023-04-15T13:37:08;3.37;;;2.42;;
23001;SDS011;11667;51.706;4.856;2023-04-15T13:39:38;3.37;;;2.33;;
23001;SDS011;11667;51.706;4.856;2023-04-15T13:42:07;2.67;;;2.10;;
23001;SDS011;11667;51.706;4.856;2023-04-15T13:44:37;5.20;;;2.33;;
23001;SDS011;11667;51.706;4.856;2023-04-15T13:47:07;2.83;;;2.45;;
23001;SDS011;11667;51.706;4.856;2023-04-15T13:49:36;3.60;;;1.87;;
23001;SDS011;11667;51.706;4.856;2023-04-15T13:52:06;3.47;;;2.20;;
23001;SDS011;11667;51.706;4.856;2023-04-15T13:54:35;3.87;;;2.27;;
23001;SDS011;11667;51.706;4.856;2023-04-15T13:57:05;3.05;;;2.08;;
23001;SDS011;11667;51.706;4.856;2023-04-15T13:59:35;2.35;;;1.65;;
23001;SDS011;11667;51.706;4.856;2023-04-15T14:02:04;3.15;;;2.08;;
23001;SDS011;11667;51.706;4.856;2023-04-15T14:04:34;4.40;;;1.90;;
23001;SDS011;11667;51.706;4.856;2023-04-15T14:07:03;2.85;;;1.80;;
23001;SDS011;11667;51.706;4.856;2023-04-15T14:09:33;1.47;;;1.37;;
23001;SDS011;11667;51.706;4.856;2023-04-15T14:12:03;3.95;;;1.60;;
23001;SDS011;11667;51.706;4.856;2023-04-15T14:14:33;2.25;;;1.80;;
23001;SDS011;11667;51.706;4.856;2023-04-15T14:17:02;3.45;;;1.70;;
23001;SDS011;11667;51.706;4.856;2023-04-15T14:19:32;2.52;;;1.70;;
23001;SDS011;11667;51.706;4.856;2023-04-15T14:22:02;5.15;;;2.02;;
23001;SDS011;11667;51.706;4.856;2023-04-15T14:24:32;2.90;;;1.70;;
23001;SDS011;11667;51.706;4.856;2023-04-15T14:27:01;5.05;;;1.82;;
23001;SDS011;11667;51.706;4.856;2023-04-15T14:29:31;4.70;;;2.08;;
23001;SDS011;11667;51.706;4.856;2023-04-15T14:32:01;4.72;;;2.10;;
23001;SDS011;11667;51.706;4.856;2023-04-15T14:34:31;4.87;;;1.95;;
23001;SDS011;11667;51.706;4.856;2023-04-15T14:37:01;4.53;;;2.30;;
23001;SDS011;11667;51.706;4.856;2023-04-15T14:39:31;3.75;;;2.40;;
23001;SDS011;11667;51.706;4.856;2023-04-15T14:42:01;5.33;;;2.20;;
23001;SDS011;11667;51.706;4.856;2023-04-15T14:44:30;5.53;;;2.30;;
23001;SDS011;11667;51.706;4.856;2023-04-15T14:47:00;4.12;;;2.30;;
23001;SDS011;11667;51.706;4.856;2023-04-15T14:49:30;3.62;;;2.00;;
23001;SDS011;11667;51.706;4.856;2023-04-15T14:52:00;4.60;;;2.22;;
23001;SDS011;11667;51.706;4.856;2023-04-15T14:54:30;5.72;;;2.30;;
23001;SDS011;11667;51.706;4.856;2023-04-15T14:56:59;5.65;;;1.90;;
23001;SDS011;11667;51.706;4.856;2023-04-15T14:59:29;4.28;;;2.40;;
23001;SDS011;11667;51.706;4.856;2023-04-15T15:01:58;3.98;;;2.40;;
23001;SDS011;11667;51.706;4.856;2023-04-15T15:04:28;4.78;;;2.20;;
23001;SDS011;11667;51.706;4.856;2023-04-15T15:06:59;3.77;;;2.30;;
23001;SDS011;11667;51.706;4.856;2023-04-15T15:09:29;4.92;;;2.55;;
23001;SDS011;11667;51.706;4.856;2023-04-15T15:12:00;5.12;;;2.70;;